createdAt,value
2023-05-20T08:50:16.382Z,94.43
2023-05-20T08:52:49.125Z,95.77
2023-05-20T08:55:24.565Z,98.37
2023-05-20T08:57:52.099Z,100.00
2023-05-20T09:00:20.471Z,99.54
2023-05-20T09:02:48.216Z,97.39
2023-05-20T09:05:15.842Z,97.74
2023-05-20T09:07:43.884Z,100.00
2023-05-20T09:10:11.423Z,99.23
2023-05-20T09:12:38.996Z,100.00
2023-05-20T09:15:07.012Z,99.68
2023-05-20T09:17:37.631Z,100.00
2023-05-20T09:20:09.028Z,96.09
2023-05-20T09:22:36.834Z,100.00
2023-05-20T09:25:04.517Z,100.00
2023-05-20T09:27:31.852Z,100.00
2023-05-20T09:29:59.535Z,100.00
2023-05-20T09:36:07.471Z,98.61
2023-05-20T09:38:38.273Z,100.00
2023-05-20T09:41:11.849Z,95.50
2023-05-20T09:43:42.992Z,92.82
2023-05-20T09:46:11.129Z,91.44
2023-05-20T09:48:39.108Z,92.19
2023-05-20T09:51:07.406Z,92.93
2023-05-20T09:53:34.885Z,90.47
2023-05-20T09:56:02.362Z,91.89
2023-05-20T09:58:30.246Z,91.71
2023-05-20T10:00:57.689Z,92.11
2023-05-20T10:03:28.356Z,94.58
2023-05-20T10:06:04.758Z,92.19
2023-05-20T10:08:38.184Z,91.95
2023-05-20T10:11:22.096Z,91.15
2023-05-20T10:13:58.396Z,91.42
2023-05-20T10:16:41.867Z,88.98
2023-05-20T10:19:20.649Z,90.30
2023-05-20T10:21:58.084Z,91.50
2023-05-20T10:24:31.539Z,89.48
2023-05-20T10:27:00.347Z,87.69
2023-05-20T10:29:27.994Z,86.13
2023-05-20T10:31:55.472Z,86.69
2023-05-20T10:34:23.116Z,89.14
2023-05-20T10:36:57.535Z,85.70
2023-05-20T10:39:31.590Z,86.36
2023-05-20T10:42:11.977Z,84.53
2023-05-20T10:44:43.545Z,86.10
2023-05-20T10:49:44.286Z,83.92
2023-05-20T10:52:11.895Z,81.12
2023-05-20T10:54:54.763Z,82.03
2023-05-20T10:57:22.704Z,84.11
2023-05-20T10:59:51.323Z,78.86
2023-05-20T11:02:18.980Z,78.14
2023-05-20T11:04:49.418Z,80.26
2023-05-20T11:07:27.660Z,79.13
2023-05-20T11:09:58.740Z,80.00
2023-05-20T11:12:27.170Z,78.49
2023-05-20T11:14:54.819Z,80.79
2023-05-20T11:17:22.275Z,79.43
2023-05-20T11:19:49.552Z,80.12
2023-05-20T11:22:16.856Z,80.38
2023-05-20T11:24:44.209Z,77.60
2023-05-20T11:27:11.496Z,77.77
2023-05-20T11:29:39.900Z,77.99
2023-05-20T11:32:08.016Z,77.07
2023-05-20T11:34:36.584Z,78.98
2023-05-20T11:37:08.117Z,77.63
2023-05-20T11:39:35.566Z,78.37
2023-05-20T11:42:03.336Z,79.96
2023-05-20T11:44:30.846Z,79.35
2023-05-20T11:47:01.687Z,79.32
2023-05-20T11:49:29.660Z,78.65
2023-05-20T11:51:56.987Z,79.90
2023-05-20T11:54:27.909Z,80.18
2023-05-20T11:56:59.439Z,81.94
2023-05-20T11:59:27.284Z,81.31
2023-05-20T12:01:54.855Z,79.94
2023-05-20T12:04:42.306Z,82.82
2023-05-20T12:07:11.683Z,81.46
2023-05-20T12:09:39.083Z,81.90
2023-05-20T12:12:06.901Z,81.48
2023-05-20T12:14:34.360Z,79.94
2023-05-20T12:17:01.840Z,80.94
2023-05-20T12:19:29.393Z,79.91
2023-05-20T12:21:56.927Z,78.63
2023-05-20T12:24:24.392Z,79.67
2023-05-20T12:26:53.073Z,78.26
2023-05-20T12:29:20.619Z,79.36
2023-05-20T12:31:53.225Z,79.30
2023-05-20T12:34:26.824Z,77.99
2023-05-20T12:36:57.354Z,77.96
2023-05-20T12:39:24.974Z,77.29
2023-05-20T12:41:52.692Z,78.60
2023-05-20T12:44:20.235Z,77.95
2023-05-20T12:46:47.760Z,78.06
2023-05-20T12:49:15.372Z,76.46
2023-05-20T12:51:45.204Z,76.57
2023-05-20T12:54:12.777Z,74.75
2023-05-20T12:56:40.808Z,73.80
2023-05-20T12:59:08.251Z,75.87
2023-05-20T13:01:43.621Z,74.41
2023-05-20T13:04:11.709Z,74.95
2023-05-20T13:06:39.254Z,75.45
2023-05-20T13:09:06.764Z,78.01
2023-05-20T13:11:34.306Z,76.52
2023-05-20T13:14:01.777Z,75.18
2023-05-20T13:16:29.273Z,74.23
2023-05-20T13:18:57.787Z,76.10
2023-05-20T13:21:25.110Z,76.51
2023-05-20T13:23:52.706Z,76.83
2023-05-20T13:26:20.090Z,74.34
2023-05-20T13:28:47.569Z,74.40
2023-05-20T13:31:15.111Z,76.39
2023-05-20T13:33:42.631Z,77.87
2023-05-20T13:36:10.659Z,74.92
2023-05-20T13:38:38.043Z,76.62
2023-05-20T13:41:05.446Z,76.26
2023-05-20T13:43:33.298Z,77.37
2023-05-20T13:46:01.068Z,77.38
2023-05-20T13:48:29.532Z,78.77
2023-05-20T13:50:56.893Z,78.26
2023-05-20T13:53:24.472Z,80.47
2023-05-20T13:55:52.021Z,80.70
2023-05-20T13:58:19.617Z,79.90
2023-05-20T14:00:47.302Z,79.96
2023-05-20T14:03:15.286Z,81.16
2023-05-20T14:05:42.822Z,80.69
2023-05-20T14:08:50.739Z,81.03
2023-05-20T14:11:29.475Z,81.89
2023-05-20T14:14:24.624Z,80.58
2023-05-20T14:17:00.547Z,79.60
2023-05-20T14:19:28.930Z,78.31
2023-05-20T14:22:54.212Z,80.12
2023-05-20T14:25:30.759Z,78.71
2023-05-20T14:28:17.981Z,77.49
2023-05-20T14:30:58.278Z,77.96
2023-05-20T14:34:10.870Z,81.42
2023-05-20T14:37:29.748Z,82.56
2023-05-20T14:40:09.316Z,82.49
2023-05-20T14:43:29.885Z,82.10
2023-05-20T14:46:02.853Z,83.75
2023-05-20T14:52:08.198Z,87.43
2023-05-20T14:54:53.289Z,85.66
2023-05-20T14:57:37.089Z,86.29
2023-05-20T15:00:07.759Z,87.21
2023-05-20T15:02:42.324Z,87.25
2023-05-20T15:05:51.483Z,88.35
2023-05-20T15:08:52.768Z,84.87
2023-05-20T15:12:09.594Z,83.82
2023-05-20T15:14:39.359Z,83.67
2023-05-20T15:17:06.972Z,84.86
2023-05-20T15:19:34.618Z,84.41
2023-05-20T15:22:02.290Z,85.82
2023-05-20T15:24:29.817Z,85.47
2023-05-20T15:27:58.708Z,87.35
2023-05-20T15:30:33.961Z,87.08
2023-05-20T15:33:16.254Z,86.79
2023-05-20T15:36:11.214Z,84.60
2023-05-20T15:39:11.727Z,84.82
2023-05-20T15:42:00.603Z,83.89
2023-05-20T15:44:29.174Z,82.96
2023-05-20T15:46:56.424Z,83.85
2023-05-20T15:49:23.908Z,83.68
2023-05-20T15:52:02.433Z,83.02
2023-05-20T15:54:30.905Z,83.51
2023-05-20T15:56:58.206Z,83.71
2023-05-20T15:59:25.932Z,82.86
2023-05-20T16:01:53.271Z,83.56
2023-05-20T16:04:20.987Z,81.69
2023-05-20T16:06:48.520Z,81.80
2023-05-20T16:09:16.000Z,81.36
2023-05-20T16:11:43.254Z,81.53
2023-05-20T16:14:10.860Z,80.53
2023-05-20T16:16:38.317Z,79.85
2023-05-20T16:19:05.935Z,79.47
2023-05-20T16:21:33.242Z,79.58
2023-05-20T16:24:00.852Z,78.99
2023-05-20T16:26:29.077Z,77.85
2023-05-20T16:28:56.333Z,79.92
2023-05-20T16:31:23.852Z,79.68
2023-05-20T16:33:51.104Z,80.36
2023-05-20T16:36:18.272Z,81.51
2023-05-20T16:38:45.563Z,81.43
2023-05-20T16:41:13.809Z,82.95
2023-05-20T16:43:42.330Z,80.00
2023-05-20T16:46:09.883Z,88.43
2023-05-20T16:48:37.248Z,85.63
2023-05-20T16:51:04.568Z,85.96
2023-05-20T16:53:31.911Z,88.15
2023-05-20T16:56:01.748Z,89.34
2023-05-20T16:58:28.965Z,90.03
2023-05-20T17:00:56.198Z,86.22
2023-05-20T17:03:23.512Z,86.57
2023-05-20T17:05:50.810Z,88.66
2023-05-20T17:08:18.315Z,90.73
2023-05-20T17:10:45.957Z,89.61
2023-05-20T17:13:13.164Z,89.21
2023-05-20T17:15:40.572Z,92.56
2023-05-20T17:18:07.884Z,89.82
2023-05-20T17:20:35.477Z,92.79
2023-05-20T17:23:03.342Z,89.36
2023-05-20T17:25:30.677Z,93.15
2023-05-20T17:27:58.036Z,91.31
2023-05-20T17:30:27.248Z,90.08
2023-05-20T17:32:55.092Z,96.42
2023-05-20T17:35:25.794Z,90.28
2023-05-20T17:37:53.807Z,93.61
2023-05-20T17:40:21.489Z,93.62
2023-05-20T17:42:48.818Z,93.93
2023-05-20T17:45:16.475Z,96.45
2023-05-20T17:47:43.945Z,93.28
2023-05-20T17:50:11.761Z,98.43
2023-05-20T17:52:40.219Z,99.89
2023-05-20T17:55:08.162Z,100.00
2023-05-20T17:57:35.746Z,99.92
2023-05-20T18:00:05.436Z,100.00
2023-05-20T18:02:33.897Z,99.97
2023-05-20T18:05:01.651Z,100.00
2023-05-20T18:07:30.597Z,100.00
2023-05-20T18:10:01.452Z,100.00
2023-05-20T18:12:28.997Z,100.00
2023-05-20T18:14:56.391Z,100.00
2023-05-20T18:17:23.747Z,100.00
2023-05-20T18:19:51.492Z,100.00
2023-05-20T18:22:18.840Z,100.00
2023-05-20T18:24:46.610Z,99.77
2023-05-20T18:27:13.970Z,98.70
2023-05-20T18:29:41.346Z,98.83
2023-05-20T18:32:12.892Z,98.17
2023-05-20T18:34:40.645Z,98.84
2023-05-20T18:37:08.008Z,97.83
2023-05-20T18:39:35.309Z,100.00
2023-05-20T18:42:02.671Z,95.94
2023-05-20T18:44:30.187Z,97.19
2023-05-20T18:46:57.462Z,100.00
2023-05-20T18:49:24.760Z,99.63
2023-05-20T18:51:52.074Z,99.75
2023-05-20T18:54:22.238Z,98.99
2023-05-20T18:56:49.864Z,99.74
2023-05-20T18:59:18.398Z,97.56
2023-05-20T19:01:45.738Z,97.07
2023-05-20T19:04:13.117Z,96.03
2023-05-20T19:06:40.800Z,96.03
2023-05-20T19:09:08.738Z,96.60
2023-05-20T19:11:38.446Z,95.89
2023-05-20T19:14:09.240Z,96.16
2023-05-20T19:17:06.165Z,96.58
2023-05-20T19:19:33.803Z,95.09
2023-05-20T21:07:39.100Z,100.00
2023-05-20T21:20:49.532Z,100.00
2023-05-20T21:22:58.508Z,100.00
2023-05-20T21:25:26.107Z,100.00
2023-05-20T21:28:03.286Z,100.00
2023-05-20T21:30:45.702Z,100.00
2023-05-20T21:33:20.155Z,100.00
2023-05-20T21:35:47.714Z,100.00
2023-05-20T21:38:15.651Z,100.00
2023-05-20T21:40:43.164Z,100.00
2023-05-20T21:43:13.830Z,100.00
2023-05-20T21:45:56.277Z,100.00
2023-05-20T21:48:56.002Z,100.00
2023-05-20T21:51:33.688Z,100.00
2023-05-20T21:54:01.742Z,100.00
2023-05-20T21:56:33.511Z,100.00
2023-05-20T21:59:05.985Z,100.00
2023-05-20T22:01:33.846Z,100.00
2023-05-20T22:04:07.102Z,100.00
2023-05-20T22:06:36.293Z,100.00
2023-05-20T22:09:07.004Z,100.00
2023-05-20T22:11:38.433Z,100.00
2023-05-20T22:14:06.041Z,100.00
2023-05-20T22:16:33.507Z,100.00
2023-05-20T22:19:08.528Z,100.00
2023-05-20T22:21:46.539Z,100.00
2023-05-20T22:24:20.864Z,100.00
2023-05-20T22:26:59.590Z,100.00
2023-05-20T22:29:34.097Z,100.00
2023-05-20T22:32:01.747Z,100.00
2023-05-20T22:34:32.425Z,100.00
2023-05-20T22:37:05.258Z,100.00
2023-05-20T22:39:32.918Z,100.00
2023-05-20T22:42:02.483Z,100.00
2023-05-20T22:44:32.752Z,100.00
2023-05-20T22:47:06.299Z,100.00
2023-05-20T22:49:40.518Z,100.00
2023-05-20T22:52:08.217Z,100.00
2023-05-20T22:54:39.169Z,100.00
2023-05-20T22:57:06.728Z,100.00
2023-05-20T22:59:34.519Z,100.00
2023-05-20T23:02:05.972Z,100.00
2023-05-20T23:05:06.330Z,100.00
2023-05-20T23:07:34.195Z,100.00
2023-05-20T23:10:05.465Z,100.00
2023-05-20T23:12:32.870Z,100.00
2023-05-20T23:22:32.641Z,100.00
